Observation data for Graham on 11/11/2019      Previous  Date       Current Mesonet Observations  Soil Data  Daily Summary Page  Observations in Plain Language
KGHS 110600Z 24007G13KT 16/13 A2987 RMK A01 T01630125  RH  081%=      5-min Rain = 0
KGHS 110605Z 24007KT 16/12 A2987 RMK A01 T01630124  RH  081%=      5-min Rain = 0
KGHS 110610Z 25006KT 16/12 A2987 RMK A01 T01620123  RH  081%=      5-min Rain = 0
KGHS 110615Z 25007KT 16/12 A2987 RMK A01 T01610122  RH  080%=      5-min Rain = 0
KGHS 110620Z 25007KT 16/12 A2987 RMK A01 T01610121  RH  080%=      5-min Rain = 0
KGHS 110625Z 26008KT 16/12 A2987 RMK A01 T01600120  RH  080%=      5-min Rain = 0
KGHS 110630Z 26007KT 16/12 A2986 RMK A01 T01590118  RH  080%=      5-min Rain = 0
KGHS 110635Z 26007KT 16/12 A2986 RMK A01 T01570117  RH  080%=      5-min Rain = 0
KGHS 110640Z 26007KT 16/12 A2986 RMK A01 T01550116  RH  081%=      5-min Rain = 0
KGHS 110645Z 26008KT 15/12 A2986 RMK A01 T01530116  RH  081%=      5-min Rain = 0
KGHS 110650Z 26008KT 15/12 A2986 RMK A01 T01530115  RH  081%=      5-min Rain = 0
KGHS 110655Z 26009KT 15/11 A2986 RMK A01 T01520113  RH  080%=      5-min Rain = 0
KGHS 110700Z 26008KT 15/11 A2986 RMK A01 T01530111  RH  079%=      5-min Rain = 0
KGHS 110705Z 26008KT 15/11 A2987 RMK A01 T01530110  RH  078%=      5-min Rain = 0
KGHS 110710Z 26008KT 15/11 A2987 RMK A01 T01530109  RH  078%=      5-min Rain = 0
KGHS 110715Z 26008KT 15/11 A2987 RMK A01 T01520109  RH  078%=      5-min Rain = 0
KGHS 110720Z 26008KT 15/11 A2987 RMK A01 T01510109  RH  079%=      5-min Rain = 0
KGHS 110725Z 26009KT 15/11 A2987 RMK A01 T01500109  RH  079%=      5-min Rain = 0
KGHS 110730Z 25008KT 15/11 A2987 RMK A01 T01490109  RH  080%=      5-min Rain = 0
KGHS 110735Z 25007KT 15/11 A2987 RMK A01 T01480109  RH  080%=      5-min Rain = 0
KGHS 110740Z 24007KT 15/11 A2987 RMK A01 T01470109  RH  081%=      5-min Rain = 0
KGHS 110745Z 25008KT 15/11 A2987 RMK A01 T01460109  RH  081%=      5-min Rain = 0
KGHS 110750Z 26008KT 15/11 A2987 RMK A01 T01470108  RH  080%=      5-min Rain = 0
KGHS 110755Z 25008KT 15/11 A2987 RMK A01 T01470109  RH  080%=      5-min Rain = 0
KGHS 110800Z 26008KT 15/11 A2987 RMK A01 T01460108  RH  081%=      5-min Rain = 0
KGHS 110805Z 26008KT 15/11 A2987 RMK A01 T01450108  RH  081%=      5-min Rain = 0
KGHS 110810Z 26007KT 14/11 A2987 RMK A01 T01440108  RH  082%=      5-min Rain = 0
KGHS 110815Z 26008KT 14/11 A2987 RMK A01 T01420108  RH  083%=      5-min Rain = 0
KGHS 110820Z 27008KT 14/11 A2986 RMK A01 T01400108  RH  084%=      5-min Rain = 0
KGHS 110825Z 26008KT 14/11 A2986 RMK A01 T01390108  RH  084%=      5-min Rain = 0
KGHS 110830Z 26008KT 14/11 A2987 RMK A01 T01400108  RH  084%=      5-min Rain = 0
KGHS 110835Z 25008KT 14/11 A2987 RMK A01 T01400107  RH  084%=      5-min Rain = 0
KGHS 110840Z 25009KT 14/11 A2987 RMK A01 T01400107  RH  083%=      5-min Rain = 0
KGHS 110845Z 24007KT 14/11 A2987 RMK A01 T01400107  RH  083%=      5-min Rain = 0
KGHS 110850Z 24008KT 14/11 A2987 RMK A01 T01390107  RH  084%=      5-min Rain = 0
KGHS 110855Z 24007KT 14/11 A2987 RMK A01 T01390107  RH  083%=      5-min Rain = 0
KGHS 110900Z 26008KT 14/11 A2987 RMK A01 T01390107  RH  083%=      5-min Rain = 0
KGHS 110905Z 26008KT 14/11 A2987 RMK A01 T01390107  RH  084%=      5-min Rain = 0
KGHS 110910Z 27007KT 14/11 A2987 RMK A01 T01400107  RH  083%=      5-min Rain = 0
KGHS 110915Z 33011G16KT 14/11 A2988 RMK A01 T01370106  RH  084%=      5-min Rain = 0
KGHS 110920Z 32012KT 13/10 A2988 RMK A01 T01320104  RH  086%=      5-min Rain = 0
KGHS 110925Z 32011KT 13/10 A2989 RMK A01 T01320104  RH  086%=      5-min Rain = 0
KGHS 110930Z 31010KT 13/10 A2989 RMK A01 T01320102  RH  085%=      5-min Rain = 0
KGHS 110935Z 33011KT 13/10 A2989 RMK A01 T01300100  RH  084%=      5-min Rain = 0
KGHS 110940Z 32009KT 13/10 A2989 RMK A01 T01290099  RH  084%=      5-min Rain = 0
KGHS 110945Z 31009KT 13/10 A299 RMK A01 T01290097  RH  084%=      5-min Rain = 0
KGHS 110950Z 30008KT 13/10 A2989 RMK A01 T01300097  RH  083%=      5-min Rain = 0
KGHS 110955Z 28009KT 13/10 A299 RMK A01 T01310096  RH  082%=      5-min Rain = 0
KGHS 111000Z 26009KT 13/10 A299 RMK A01 T01320096  RH  082%=      5-min Rain = 0
KGHS 111005Z 25008KT 13/10 A299 RMK A01 T01320098  RH  082%=      5-min Rain = 0
KGHS 111010Z 28006KT 13/10 A299 RMK A01 T01320098  RH  082%=      5-min Rain = 0
KGHS 111015Z 33008KT 13/10 A2991 RMK A01 T01310098  RH  083%=      5-min Rain = 0
KGHS 111020Z 33007KT 13/10 A2992 RMK A01 T01270097  RH  085%=      5-min Rain = 0
KGHS 111025Z 32006KT 13/10 A2992 RMK A01 T01250097  RH  086%=      5-min Rain = 0
KGHS 111030Z 31006KT 12/10 A2992 RMK A01 T01240096  RH  086%=      5-min Rain = 0
KGHS 111035Z 31007KT 12/10 A2992 RMK A01 T01230096  RH  086%=      5-min Rain = 0
KGHS 111040Z 31008KT 12/10 A2992 RMK A01 T01230096  RH  086%=      5-min Rain = 0
KGHS 111045Z 31008KT 12/10 A2992 RMK A01 T01240096  RH  086%=      5-min Rain = 0
KGHS 111050Z 31009KT 12/10 A2993 RMK A01 T01230096  RH  086%=      5-min Rain = 0
KGHS 111055Z 33014G20KT 13/09 A2993 RMK A01 T01250090  RH  082%=      5-min Rain = 0
KGHS 111100Z 34016G23KT 13/08 A2994 RMK A01 T01280077  RH  073%=      5-min Rain = 0
KGHS 111105Z 34020G25KT 13/07 A2994 RMK A01 T01280065  RH  067%=      5-min Rain = 0
KGHS 111110Z 35022G30KT 12/05 A2995 RMK A01 T01230053  RH  063%=      5-min Rain = 0
KGHS 111115Z 00020G28KT 12/04 A2996 RMK A01 T01150043  RH  063%=      5-min Rain = 0
KGHS 111120Z 35021G27KT 11/04 A2996 RMK A01 T01090043  RH  065%=      5-min Rain = 0
KGHS 111125Z 36023G33KT 10/04 A2997 RMK A01 T01020040  RH  066%=      5-min Rain = 0
KGHS 111130Z 35021G27KT 10/04 A2998 RMK A01 T00990040  RH  068%=      5-min Rain = 0
KGHS 111135Z 35019G24KT 10/04 A2999 RMK A01 T00950041  RH  070%=      5-min Rain = 0
KGHS 111140Z 35019G28KT 09/04 A30 RMK A01 T00930044  RH  073%=      5-min Rain = 0
KGHS 111145Z 36022G30KT 09/05 A30 RMK A01 T00920047  RH  075%=      5-min Rain = 0
KGHS 111150Z 36020G28KT 09/05 A3001 RMK A01 T00910051  RH  078%=      5-min Rain = 0
KGHS 111155Z 35020G26KT 09/05 A3002 RMK A01 T00890052  RH  079%=      5-min Rain = 0
KGHS 111200Z 36020G26KT 09/05 A3002 RMK A01 T00880052  RH  080%=      5-min Rain = 0
KGHS 111205Z 00021G27KT 09/05 A3003 RMK A01 T00870052  RH  080%=      5-min Rain = 0
KGHS 111210Z 00021G27KT 09/05 A3003 RMK A01 T00870052  RH  081%=      5-min Rain = 0
KGHS 111215Z 36019G26KT 09/05 A3003 RMK A01 T00860052  RH  081%=      5-min Rain = 0
KGHS 111220Z 00019G26KT 09/05 A3004 RMK A01 T00850050  RH  080%=      5-min Rain = 0
KGHS 111225Z 00022G30KT 09/05 A3005 RMK A01 T00850049  RH  080%=      5-min Rain = 0
KGHS 111230Z 00024G33KT 08/05 A3005 RMK A01 T00840048  RH  080%=      5-min Rain = 0
KGHS 111235Z 00026G33KT 08/05 A3005 RMK A01 T00830046  RH  079%=      5-min Rain = 0
KGHS 111240Z 01024G33KT 08/05 A3005 RMK A01 T00820046  RH  079%=      5-min Rain = 0
KGHS 111245Z 01022G31KT 08/05 A3005 RMK A01 T00820045  RH  080%=      5-min Rain = 0
KGHS 111250Z 01023G32KT 08/04 A3006 RMK A01 T00800044  RH  079%=      5-min Rain = 0
KGHS 111255Z 01026G33KT 08/04 A3005 RMK A01 T00790041  RH  078%=      5-min Rain = 0
KGHS 111300Z 01022G30KT 08/04 A3006 RMK A01 T00780039  RH  078%=      5-min Rain = 0
KGHS 111305Z 01025G33KT 07/03 A3006 RMK A01 T00740031  RH  076%=      5-min Rain = 0
KGHS 111310Z 00027G37KT 07/03 A3007 RMK A01 T00690025  RH  075%=      5-min Rain = 0
KGHS 111315Z 00023G32KT 07/02 A3009 RMK A01 T00660024  RH  076%=      5-min Rain = 0
KGHS 111320Z 36024G30KT 06/02 A301 RMK A01 T00630021  RH  076%=      5-min Rain = 0
KGHS 111325Z 01024G32KT 06/02 A301 RMK A01 T00600020  RH  077%=      5-min Rain = 0
KGHS 111330Z 01023G30KT 06/02 A3012 RMK A01 T00570018  RH  077%=      5-min Rain = 0
KGHS 111335Z 00028G38KT 05/01 A3013 RMK A01 T00500012  RH  078%=      5-min Rain = 0
KGHS 111340Z 00025G33KT 04/01 A3014 RMK A01 T00420011  RH  081%=      5-min Rain = 0
KGHS 111345Z 01025G35KT 04/01 A3014 RMK A01 T00390009  RH  082%=      5-min Rain = 0
KGHS 111350Z 01029G36KT 04/01 A3014 RMK A01 T00360007  RH  082%=      5-min Rain = 0
KGHS 111355Z 01026G36KT 03/00 A3015 RMK A01 T00340004  RH  082%=      5-min Rain = 0
KGHS 111400Z 01030G38KT 03/M00 A3015 RMK A01 T00291001  RH  082%=      5-min Rain = 0
KGHS 111405Z 01027G36KT 03/M00 A3017 RMK A01 T00251002  RH  083%=      5-min Rain = 0
KGHS 111410Z 01028G36KT 02/M01 A3017 RMK A01 T00221005  RH  083%=      5-min Rain = 0
KGHS 111415Z 01028G36KT 02/M01 A3018 RMK A01 T00201008  RH  083%=      5-min Rain = 0
KGHS 111420Z 01028G36KT 02/M01 A3018 RMK A01 T00181009  RH  083%=      5-min Rain = 0
KGHS 111425Z 01027G35KT 02/M01 A3019 RMK A01 T00181009  RH  083%=      5-min Rain = 0
KGHS 111430Z 01026G36KT 02/M01 A302 RMK A01 T00181008  RH  083%=      5-min Rain = 0
KGHS 111435Z 01026G33KT 02/M01 A302 RMK A01 T00181010  RH  083%=      5-min Rain = 0
KGHS 111440Z 00023G31KT 02/M01 A3021 RMK A01 T00171010  RH  083%=      5-min Rain = 0
KGHS 111445Z 01024G31KT 02/M01 A3022 RMK A01 T00161011  RH  083%=      5-min Rain = 0
KGHS 111450Z 02021G27KT 02/M01 A3023 RMK A01 T00161011  RH  083%=      5-min Rain = 0
KGHS 111455Z 02024G31KT 02/M01 A3023 RMK A01 T00151012  RH  083%=      5-min Rain = 0
KGHS 111500Z 01023G31KT 01/M01 A3024 RMK A01 T00141014  RH  082%=      5-min Rain = 0
KGHS 111505Z 01022G27KT 01/M01 A3024 RMK A01 T00141013  RH  083%=      5-min Rain = 0
KGHS 111510Z 01022G31KT 01/M01 A3025 RMK A01 T00131013  RH  083%=      5-min Rain = 0
KGHS 111515Z 01022G29KT 01/M01 A3025 RMK A01 T00131013  RH  084%=      5-min Rain = 0
KGHS 111520Z 01024G33KT 01/M01 A3026 RMK A01 T00121013  RH  084%=      5-min Rain = 0
KGHS 111525Z 01026G35KT 01/M02 A3026 RMK A01 T00111015  RH  084%=      5-min Rain = 0
KGHS 111530Z 01022G32KT 01/M02 A3027 RMK A01 T00101015  RH  084%=      5-min Rain = 0
KGHS 111535Z 01023G31KT 01/M02 A3028 RMK A01 T00081017  RH  084%=      5-min Rain = 0
KGHS 111540Z 00026G34KT 01/M02 A3028 RMK A01 T00051019  RH  085%=      5-min Rain = 0
KGHS 111545Z 01022G32KT 00/M02 A3029 RMK A01 T00031019  RH  085%=      5-min Rain = 0
KGHS 111550Z 01027G38KT 00/M02 A3029 RMK A01 T00021022  RH  084%=      5-min Rain = 0
KGHS 111555Z 00023G32KT 00/02 A303 RMK A01 T00-00-24  RH  085%=      5-min Rain = 0
KGHS 111600Z 01027G36KT M00/M03 A303 RMK A01 T10021026  RH  084%=      5-min Rain = 0
KGHS 111605Z 00027G36KT M00/M03 A303 RMK A01 T10041028  RH  084%=      5-min Rain = 0
KGHS 111610Z 01024G36KT M01/M03 A3031 RMK A01 T10051027  RH  085%=      5-min Rain = 0
KGHS 111615Z 00023G35KT M01/M03 A3032 RMK A01 T10051028  RH  085%=      5-min Rain = 0
KGHS 111620Z 01029G37KT M01/M03 A3032 RMK A01 T10071030  RH  085%=      5-min Rain = 0
KGHS 111625Z 01025G34KT M01/M03 A3032 RMK A01 T10081032  RH  084%=      5-min Rain = 0
KGHS 111630Z 01022G30KT M01/M03 A3033 RMK A01 T10071030  RH  085%=      5-min Rain = 0
KGHS 111635Z 01025G32KT M01/M03 A3033 RMK A01 T10081031  RH  085%=      5-min Rain = 0
KGHS 111640Z 01026G33KT M01/M03 A3033 RMK A01 T10081031  RH  085%=      5-min Rain = 0
KGHS 111645Z 01024G32KT M01/M03 A3033 RMK A01 T10091032  RH  085%=      5-min Rain = 0
KGHS 111650Z 00027G35KT M01/M03 A3034 RMK A01 T10121034  RH  086%=      5-min Rain = 0
KGHS 111655Z 00028G37KT M01/M04 A3034 RMK A01 T10141038  RH  084%=      5-min Rain = 0
KGHS 111700Z 00026G35KT M02/M04 A3035 RMK A01 T10151039  RH  084%=      5-min Rain = 0
KGHS 111705Z 01031G44KT M02/M04 A3035 RMK A01 T10171043  RH  083%=      5-min Rain = 0
KGHS 111710Z 01029G37KT M02/M05 A3035 RMK A01 T10191045  RH  083%=      5-min Rain = 0
KGHS 111715Z 02029G37KT M02/M05 A3035 RMK A01 T10201045  RH  084%=      5-min Rain = 0
KGHS 111720Z 01028G34KT M02/M04 A3036 RMK A01 T10201044  RH  084%=      5-min Rain = 0
KGHS 111725Z 01026G33KT M02/M04 A3036 RMK A01 T10191043  RH  084%=      5-min Rain = 0
KGHS 111730Z 01021G30KT M02/M04 A3037 RMK A01 T10171041  RH  084%=      5-min Rain = 0
KGHS 111735Z 02023G30KT M02/M04 A3036 RMK A01 T10171042  RH  083%=      5-min Rain = 0
KGHS 111740Z 02022G33KT M02/M04 A3036 RMK A01 T10161041  RH  083%=      5-min Rain = 0
KGHS 111745Z 01026G37KT M02/M04 A3036 RMK A01 T10161044  RH  082%=      5-min Rain = 0
KGHS 111750Z 02029G40KT M02/M05 A3036 RMK A01 T10161047  RH  080%=      5-min Rain = 0
KGHS 111755Z 02025G33KT M02/M05 A3036 RMK A01 T10161047  RH  080%=      5-min Rain = 0
KGHS 111800Z 02025G36KT M02/M05 A3037 RMK A01 T10151047  RH  079%=      5-min Rain = 0
KGHS 111805Z 02022G30KT M02/M05 A3037 RMK A01 T10151047  RH  079%=      5-min Rain = 0
KGHS 111810Z 02024G32KT M02/M05 A3037 RMK A01 T10151048  RH  078%=      5-min Rain = 0
KGHS 111815Z 01028G35KT M02/M05 A3037 RMK A01 T10171050  RH  078%=      5-min Rain = 0
KGHS 111820Z 01023G32KT M02/M05 A3038 RMK A01 T10171050  RH  079%=      5-min Rain = 0
KGHS 111825Z 02027G33KT M02/M05 A3038 RMK A01 T10181051  RH  078%=      5-min Rain = 0
KGHS 111830Z 01029G37KT M02/M05 A3037 RMK A01 T10181052  RH  078%=      5-min Rain = 0
KGHS 111835Z 01026G32KT M02/M05 A3038 RMK A01 T10181051  RH  078%=      5-min Rain = 0
KGHS 111840Z 01020G27KT M02/M05 A3038 RMK A01 T10171049  RH  079%=      5-min Rain = 0
KGHS 111845Z 01021G29KT M02/M05 A3038 RMK A01 T10171048  RH  079%=      5-min Rain = 0
KGHS 111850Z 00023G31KT M02/M05 A3038 RMK A01 T10181051  RH  079%=      5-min Rain = 0
KGHS 111855Z 01025G33KT M02/M05 A3038 RMK A01 T10191052  RH  079%=      5-min Rain = 0
KGHS 111900Z 01025G32KT M02/M05 A3038 RMK A01 T10201053  RH  078%=      5-min Rain = 0
KGHS 111905Z 01024G33KT M02/M05 A3038 RMK A01 T10201054  RH  078%=      5-min Rain = 0
KGHS 111910Z 01026G34KT M02/M06 A3038 RMK A01 T10211056  RH  077%=      5-min Rain = 0
KGHS 111915Z 01022G31KT M02/M06 A3038 RMK A01 T10201055  RH  077%=      5-min Rain = 0
KGHS 111920Z 01024G31KT M02/M06 A3038 RMK A01 T10201056  RH  077%=      5-min Rain = 0
KGHS 111925Z 01025G34KT M02/M06 A3038 RMK A01 T10211057  RH  077%=      5-min Rain = 0
KGHS 111930Z 01027G33KT M02/M06 A3037 RMK A01 T10221060  RH  076%=      5-min Rain = 0
KGHS 111935Z 01024G33KT M02/M06 A3038 RMK A01 T10221061  RH  075%=      5-min Rain = 0
KGHS 111940Z 01020G27KT M02/M06 A3039 RMK A01 T10211059  RH  075%=      5-min Rain = 0
KGHS 111945Z 01021G27KT M02/M06 A3039 RMK A01 T10211061  RH  074%=      5-min Rain = 0
KGHS 111950Z 01022G29KT M02/M06 A3039 RMK A01 T10221063  RH  073%=      5-min Rain = 0
KGHS 111955Z 01022G30KT M02/M07 A304 RMK A01 T10231066  RH  073%=      5-min Rain = 0
KGHS 112000Z 02025G34KT M02/M07 A3039 RMK A01 T10231068  RH  071%=      5-min Rain = 0
KGHS 112005Z 01024G32KT M02/M07 A3039 RMK A01 T10231069  RH  071%=      5-min Rain = 0
KGHS 112010Z 01022G30KT M02/M07 A3039 RMK A01 T10221067  RH  071%=      5-min Rain = 0
KGHS 112015Z 01026G34KT M02/M07 A3039 RMK A01 T10221070  RH  070%=      5-min Rain = 0
KGHS 112020Z 01022G31KT M02/M07 A3039 RMK A01 T10211069  RH  070%=      5-min Rain = 0
KGHS 112025Z 02021G30KT M02/M07 A304 RMK A01 T10201068  RH  069%=      5-min Rain = 0
KGHS 112030Z 01019G27KT M02/M07 A304 RMK A01 T10181066  RH  070%=      5-min Rain = 0
KGHS 112035Z 01022G30KT M02/M07 A304 RMK A01 T10191066  RH  070%=      5-min Rain = 0
KGHS 112040Z 01024G31KT M02/M07 A3041 RMK A01 T10201069  RH  069%=      5-min Rain = 0
KGHS 112045Z 01022G33KT M02/M07 A3041 RMK A01 T10201069  RH  069%=      5-min Rain = 0
KGHS 112050Z 02023G33KT M02/M07 A3041 RMK A01 T10201071  RH  068%=      5-min Rain = 0
KGHS 112055Z 01022G28KT M02/M07 A3041 RMK A01 T10201071  RH  068%=      5-min Rain = 0
KGHS 112100Z 01023G29KT M02/M07 A3041 RMK A01 T10181071  RH  067%=      5-min Rain = 0
KGHS 112105Z 02021G29KT M02/M07 A3042 RMK A01 T10181072  RH  067%=      5-min Rain = 0
KGHS 112110Z 01020G25KT M02/M07 A3042 RMK A01 T10181073  RH  066%=      5-min Rain = 0
KGHS 112115Z 01021G27KT M02/M08 A3043 RMK A01 T10191076  RH  065%=      5-min Rain = 0
KGHS 112120Z 01020G28KT M02/M08 A3043 RMK A01 T10181075  RH  065%=      5-min Rain = 0
KGHS 112125Z 01020G26KT M02/M08 A3044 RMK A01 T10181075  RH  065%=      5-min Rain = 0
KGHS 112130Z 02022G27KT M02/M08 A3044 RMK A01 T10171077  RH  064%=      5-min Rain = 0
KGHS 112135Z 02019G28KT M02/M08 A3044 RMK A01 T10181075  RH  065%=      5-min Rain = 0
KGHS 112140Z 01015G22KT M02/M07 A3044 RMK A01 T10161071  RH  066%=      5-min Rain = 0
KGHS 112145Z 01020G27KT M02/M07 A3045 RMK A01 T10171073  RH  065%=      5-min Rain = 0
KGHS 112150Z 01021G28KT M02/M08 A3045 RMK A01 T10171076  RH  064%=      5-min Rain = 0
KGHS 112155Z 01024G30KT M02/M08 A3044 RMK A01 T10171079  RH  062%=      5-min Rain = 0
KGHS 112200Z 01017G22KT M02/M08 A3045 RMK A01 T10161077  RH  063%=      5-min Rain = 0
KGHS 112205Z 01018G25KT M02/M08 A3045 RMK A01 T10151076  RH  063%=      5-min Rain = 0
KGHS 112210Z 01018KT M01/M08 A3046 RMK A01 T10141076  RH  062%=      5-min Rain = 0
KGHS 112215Z 01018G23KT M01/M08 A3046 RMK A01 T10131078  RH  061%=      5-min Rain = 0
KGHS 112220Z 01016G22KT M01/M08 A3047 RMK A01 T10131078  RH  061%=      5-min Rain = 0
KGHS 112225Z 01015G24KT M01/M08 A3047 RMK A01 T10121076  RH  062%=      5-min Rain = 0
KGHS 112230Z 02021G28KT M01/M08 A3046 RMK A01 T10131082  RH  059%=      5-min Rain = 0
KGHS 112235Z 02019G26KT M01/M08 A3046 RMK A01 T10131082  RH  059%=      5-min Rain = 0
KGHS 112240Z 02020G28KT M01/M08 A3046 RMK A01 T10131083  RH  059%=      5-min Rain = 0
KGHS 112245Z 01021G30KT M01/M08 A3046 RMK A01 T10131084  RH  059%=      5-min Rain = 0
KGHS 112250Z 02022G27KT M01/M09 A3046 RMK A01 T10141085  RH  058%=      5-min Rain = 0
KGHS 112255Z 02019G28KT M01/M08 A3046 RMK A01 T10131083  RH  059%=      5-min Rain = 0
KGHS 112300Z 02020G27KT M01/M08 A3046 RMK A01 T10131084  RH  058%=      5-min Rain = 0
KGHS 112305Z 02018G27KT M01/M09 A3047 RMK A01 T10131086  RH  058%=      5-min Rain = 0
KGHS 112310Z 02022G28KT M01/M09 A3047 RMK A01 T10141087  RH  057%=      5-min Rain = 0
KGHS 112315Z 01019G26KT M01/M09 A3047 RMK A01 T10141086  RH  058%=      5-min Rain = 0
KGHS 112320Z 01019G26KT M01/M09 A3047 RMK A01 T10141087  RH  057%=      5-min Rain = 0
KGHS 112325Z 01019G26KT M01/M09 A3048 RMK A01 T10131086  RH  057%=      5-min Rain = 0
KGHS 112330Z 01018G25KT M01/M09 A3048 RMK A01 T10131087  RH  057%=      5-min Rain = 0
KGHS 112335Z 02018G24KT M01/M09 A3048 RMK A01 T10131087  RH  057%=      5-min Rain = 0
KGHS 112340Z 02018G24KT M01/M09 A3048 RMK A01 T10131086  RH  058%=      5-min Rain = 0
KGHS 112345Z 02018G24KT M01/M09 A3049 RMK A01 T10131087  RH  057%=      5-min Rain = 0
KGHS 112350Z 02016G23KT M01/M09 A3049 RMK A01 T10121085  RH  058%=      5-min Rain = 0
KGHS 112355Z 02018G23KT M01/M09 A3049 RMK A01 T10131087  RH  057%=      5-min Rain = 0
KGHS 120000Z 01014G20KT M01/M08 A305 RMK A01 T10121084  RH  058%=      5-min Rain = 0
KGHS 120005Z 02012G17KT M01/M08 A305 RMK A01 T10111081  RH  059%=      5-min Rain = 0
KGHS 120010Z 01016G22KT M01/M08 A305 RMK A01 T10111083  RH  058%=      5-min Rain = 0
KGHS 120015Z 01013G18KT M01/M08 A3051 RMK A01 T10111083  RH  058%=      5-min Rain = 0
KGHS 120020Z 01011G16KT M01/M08 A3051 RMK A01 T10101080  RH  059%=      5-min Rain = 0
KGHS 120025Z 01012G18KT M01/M08 A3051 RMK A01 T10101080  RH  059%=      5-min Rain = 0
KGHS 120030Z 01013KT M01/M08 A3051 RMK A01 T10111081  RH  059%=      5-min Rain = 0
KGHS 120035Z 02014G19KT M01/M08 A3051 RMK A01 T10111082  RH  058%=      5-min Rain = 0
KGHS 120040Z 01014KT M01/M08 A3052 RMK A01 T10111082  RH  059%=      5-min Rain = 0
KGHS 120045Z 01013KT M01/M08 A3052 RMK A01 T10121082  RH  059%=      5-min Rain = 0
KGHS 120050Z 01013KT M01/M08 A3052 RMK A01 T10121082  RH  059%=      5-min Rain = 0
KGHS 120055Z 01013G19KT M01/M08 A3052 RMK A01 T10121083  RH  058%=      5-min Rain = 0
KGHS 120100Z 01013KT M01/M08 A3052 RMK A01 T10121083  RH  058%=      5-min Rain = 0
KGHS 120105Z 01013KT M01/M08 A3052 RMK A01 T10131084  RH  058%=      5-min Rain = 0
KGHS 120110Z 01014G19KT M01/M08 A3052 RMK A01 T10131084  RH  058%=      5-min Rain = 0
KGHS 120115Z 01013KT M01/M08 A3052 RMK A01 T10131083  RH  059%=      5-min Rain = 0
KGHS 120120Z 02015KT M01/M08 A3052 RMK A01 T10131084  RH  059%=      5-min Rain = 0
KGHS 120125Z 01014KT M01/M08 A3052 RMK A01 T10131084  RH  058%=      5-min Rain = 0
KGHS 120130Z 01015KT M01/M08 A3052 RMK A01 T10131084  RH  058%=      5-min Rain = 0
KGHS 120135Z 02015G20KT M01/M09 A3053 RMK A01 T10131086  RH  058%=      5-min Rain = 0
KGHS 120140Z 02016G22KT M01/M09 A3053 RMK A01 T10131086  RH  057%=      5-min Rain = 0
KGHS 120145Z 02017G24KT M01/M09 A3054 RMK A01 T10131088  RH  057%=      5-min Rain = 0
KGHS 120150Z 02016G22KT M01/M09 A3053 RMK A01 T10131088  RH  056%=      5-min Rain = 0
KGHS 120155Z 02018G23KT M01/M09 A3053 RMK A01 T10131090  RH  056%=      5-min Rain = 0
KGHS 120200Z 02015G21KT M01/M09 A3054 RMK A01 T10131089  RH  056%=      5-min Rain = 0
KGHS 120205Z 01014KT M01/M09 A3054 RMK A01 T10141088  RH  057%=      5-min Rain = 0
KGHS 120210Z 01013KT M02/M09 A3055 RMK A01 T10151087  RH  057%=      5-min Rain = 0
KGHS 120215Z 02011G16KT M02/M09 A3055 RMK A01 T10151086  RH  058%=      5-min Rain = 0
KGHS 120220Z 02012G17KT M02/M09 A3055 RMK A01 T10161085  RH  059%=      5-min Rain = 0
KGHS 120225Z 02015G22KT M02/M09 A3055 RMK A01 T10161087  RH  058%=      5-min Rain = 0
KGHS 120230Z 02018G23KT M02/M09 A3055 RMK A01 T10161092  RH  056%=      5-min Rain = 0
KGHS 120235Z 01018G24KT M02/M09 A3055 RMK A01 T10171093  RH  056%=      5-min Rain = 0
KGHS 120240Z 02016G21KT M02/M09 A3055 RMK A01 T10171092  RH  057%=      5-min Rain = 0
KGHS 120245Z 02017G24KT M02/M10 A3055 RMK A01 T10181095  RH  056%=      5-min Rain = 0
KGHS 120250Z 02017KT M02/M10 A3056 RMK A01 T10191097  RH  055%=      5-min Rain = 0
KGHS 120255Z 02016G23KT M02/M10 A3055 RMK A01 T10201100  RH  054%=      5-min Rain = 0
KGHS 120300Z 01019G24KT M02/M10 A3056 RMK A01 T10211104  RH  053%=      5-min Rain = 0
KGHS 120305Z 02017G22KT M02/M10 A3056 RMK A01 T10211104  RH  053%=      5-min Rain = 0
KGHS 120310Z 02013G18KT M02/M10 A3057 RMK A01 T10221100  RH  055%=      5-min Rain = 0
KGHS 120315Z 02015KT M02/M10 A3057 RMK A01 T10231100  RH  055%=      5-min Rain = 0
KGHS 120320Z 02014G21KT M02/M10 A3057 RMK A01 T10231101  RH  055%=      5-min Rain = 0
KGHS 120325Z 01013KT M02/M10 A3058 RMK A01 T10241100  RH  056%=      5-min Rain = 0
KGHS 120330Z 01015G21KT M02/M10 A3058 RMK A01 T10241103  RH  055%=      5-min Rain = 0
KGHS 120335Z 01014G19KT M02/M10 A3058 RMK A01 T10241101  RH  055%=      5-min Rain = 0
KGHS 120340Z 01016G22KT M03/M10 A3058 RMK A01 T10251103  RH  055%=      5-min Rain = 0
KGHS 120345Z 01017G23KT M03/M11 A3057 RMK A01 T10251105  RH  054%=      5-min Rain = 0
KGHS 120350Z 01015G20KT M03/M10 A3058 RMK A01 T10251104  RH  055%=      5-min Rain = 0
KGHS 120355Z 01016G21KT M03/M10 A3058 RMK A01 T10261104  RH  055%=      5-min Rain = 0
KGHS 120400Z 01014G19KT M03/M10 A3058 RMK A01 T10261103  RH  055%=      5-min Rain = 0
KGHS 120405Z 01012KT M03/M10 A3058 RMK A01 T10271101  RH  057%=      5-min Rain = 0
KGHS 120410Z 01014KT M03/M10 A3058 RMK A01 T10271102  RH  056%=      5-min Rain = 0
KGHS 120415Z 02013KT M03/M10 A3059 RMK A01 T10281100  RH  057%=      5-min Rain = 0
KGHS 120420Z 01012KT M03/M10 A3059 RMK A01 T10281099  RH  058%=      5-min Rain = 0
KGHS 120425Z 01012G19KT M03/M10 A3059 RMK A01 T10291100  RH  058%=      5-min Rain = 0
KGHS 120430Z 02013G18KT M03/M10 A3059 RMK A01 T10301101  RH  058%=      5-min Rain = 0
KGHS 120435Z 01013G18KT M03/M10 A3059 RMK A01 T10301101  RH  058%=      5-min Rain = 0
KGHS 120440Z 01013KT M03/M10 A3059 RMK A01 T10311102  RH  058%=      5-min Rain = 0
KGHS 120445Z 02012G18KT M03/M10 A3059 RMK A01 T10311102  RH  058%=      5-min Rain = 0
KGHS 120450Z 01015G20KT M03/M11 A3059 RMK A01 T10321109  RH  055%=      5-min Rain = 0
KGHS 120455Z 01015G20KT M03/M11 A3059 RMK A01 T10321111  RH  054%=      5-min Rain = 0
KGHS 120500Z 01019KT M03/M12 A3059 RMK A01 T10321115  RH  052%=      5-min Rain = 0
KGHS 120505Z 02018G24KT M03/M12 A3059 RMK A01 T10321117  RH  052%=      5-min Rain = 0
KGHS 120510Z 02018G23KT M03/M12 A3059 RMK A01 T10331119  RH  051%=      5-min Rain = 0
KGHS 120515Z 01016G22KT M03/M12 A3059 RMK A01 T10341119  RH  051%=      5-min Rain = 0
KGHS 120520Z 01013KT M03/M12 A306 RMK A01 T10341117  RH  053%=      5-min Rain = 0
KGHS 120525Z 02012KT M04/M11 A306 RMK A01 T10351114  RH  054%=      5-min Rain = 0
KGHS 120530Z 01011G16KT M04/M11 A306 RMK A01 T10351112  RH  055%=      5-min Rain = 0
KGHS 120535Z 01012KT M04/M11 A3061 RMK A01 T10361113  RH  055%=      5-min Rain = 0
KGHS 120540Z 02010KT M04/M11 A3061 RMK A01 T10361111  RH  056%=      5-min Rain = 0
KGHS 120545Z 01009KT M04/M11 A3061 RMK A01 T10371110  RH  057%=      5-min Rain = 0
KGHS 120550Z 01011KT M04/M11 A3061 RMK A01 T10381113  RH  056%=      5-min Rain = 0
KGHS 120555Z 01012KT M04/M11 A306 RMK A01 T10381113  RH  056%=      5-min Rain = 0

Page generated in 0.0097 seconds.